createdAt,value
2022-10-18T00:00:16.272Z,41.25
2022-10-18T00:01:16.250Z,40.77
2022-10-18T00:02:16.290Z,44.96
2022-10-18T00:03:16.221Z,41.41
2022-10-18T00:04:16.249Z,42.22
2022-10-18T00:05:16.204Z,41.41
2022-10-18T00:06:16.208Z,42.54
2022-10-18T00:07:16.189Z,41.09
2022-10-18T00:08:16.176Z,40.12
2022-10-18T00:09:16.189Z,40.93
2022-10-18T00:10:16.155Z,40.77
2022-10-18T00:11:16.138Z,40.12
2022-10-18T00:12:16.386Z,45.44
2022-10-18T00:13:16.132Z,41.73
2022-10-18T00:14:16.109Z,40.28
2022-10-18T00:15:16.110Z,39.64
2022-10-18T00:16:16.085Z,39.96
2022-10-18T00:17:16.102Z,39.64
2022-10-18T00:18:16.062Z,40.61
2022-10-18T00:19:16.058Z,41.25
2022-10-18T00:20:16.045Z,40.61
2022-10-18T00:21:16.040Z,40.77
2022-10-18T00:22:16.046Z,41.89
2022-10-18T00:23:16.016Z,41.73
2022-10-18T00:24:16.015Z,42.22
2022-10-18T00:25:16.007Z,41.57
2022-10-18T00:26:15.994Z,43.34
2022-10-18T00:27:17.016Z,44.63
2022-10-18T00:28:15.974Z,42.70
2022-10-18T00:29:15.961Z,41.25
2022-10-18T00:30:15.954Z,44.79
2022-10-18T00:31:15.972Z,41.57
2022-10-18T00:32:15.929Z,44.96
2022-10-18T00:33:15.912Z,41.25
2022-10-18T00:34:15.908Z,44.31
2022-10-18T00:35:15.909Z,46.08
2022-10-18T00:36:15.902Z,49.63
2022-10-18T00:37:15.890Z,40.44
2022-10-18T00:38:15.864Z,40.44
2022-10-18T00:39:15.849Z,41.25
2022-10-18T00:40:15.864Z,46.73
2022-10-18T00:41:15.823Z,44.47
2022-10-18T00:42:15.927Z,42.54
2022-10-18T00:43:15.811Z,44.47
2022-10-18T00:44:15.803Z,42.54
2022-10-18T00:45:15.794Z,43.99
2022-10-18T00:46:15.777Z,42.54
2022-10-18T00:47:15.789Z,41.89
2022-10-18T00:48:15.772Z,43.02
2022-10-18T00:49:15.758Z,43.51
2022-10-18T00:50:15.737Z,49.63
2022-10-18T00:51:15.729Z,42.54
2022-10-18T00:52:15.721Z,40.12
2022-10-18T00:53:15.716Z,39.64
2022-10-18T00:54:15.704Z,41.41
2022-10-18T00:55:15.688Z,41.89
2022-10-18T00:56:15.672Z,44.15
2022-10-18T00:57:15.691Z,47.86
2022-10-18T00:58:15.656Z,42.38
2022-10-18T00:59:15.649Z,41.41
2022-10-18T01:00:15.649Z,39.64
2022-10-18T01:01:15.656Z,39.96
2022-10-18T01:02:15.627Z,48.18
2022-10-18T01:03:15.594Z,45.76
2022-10-18T01:04:15.601Z,45.12
2022-10-18T01:05:15.588Z,45.60
2022-10-18T01:06:15.572Z,43.51
2022-10-18T01:07:15.563Z,44.96
2022-10-18T01:08:15.582Z,44.47
2022-10-18T01:09:15.562Z,48.98
2022-10-18T01:10:15.548Z,43.99
2022-10-18T01:11:15.528Z,42.86
2022-10-18T01:12:15.539Z,43.99
2022-10-18T01:13:15.500Z,45.76
2022-10-18T01:14:15.508Z,47.53
2022-10-18T01:15:15.491Z,44.79
2022-10-18T01:16:15.478Z,43.51
2022-10-18T01:17:15.484Z,42.86
2022-10-18T01:18:15.456Z,44.96
2022-10-18T01:19:15.461Z,42.86
2022-10-18T01:20:15.440Z,42.70
2022-10-18T01:21:15.431Z,42.54
2022-10-18T01:22:15.407Z,42.54
2022-10-18T01:23:15.399Z,43.51
2022-10-18T01:24:15.412Z,49.31
2022-10-18T01:25:15.382Z,43.18
2022-10-18T01:26:15.375Z,41.73
2022-10-18T01:27:15.360Z,41.73
2022-10-18T01:28:15.352Z,42.38
2022-10-18T01:29:15.365Z,41.57
2022-10-18T01:30:15.344Z,40.61
2022-10-18T01:31:15.321Z,40.28
2022-10-18T01:32:15.364Z,39.96
2022-10-18T01:33:15.306Z,41.41
2022-10-18T01:34:15.412Z,41.41
2022-10-18T01:35:15.301Z,41.09
2022-10-18T01:36:15.272Z,41.41
2022-10-18T01:37:15.285Z,45.12
2022-10-18T01:38:15.272Z,43.51
2022-10-18T01:39:15.244Z,43.99
2022-10-18T01:40:15.246Z,44.47
2022-10-18T01:41:15.954Z,45.76
2022-10-18T01:42:15.217Z,48.34
2022-10-18T01:43:15.196Z,47.05
2022-10-18T01:44:15.250Z,47.37
2022-10-18T01:45:15.197Z,48.82
2022-10-18T01:46:15.196Z,47.21
2022-10-18T01:47:15.171Z,47.70
2022-10-18T01:48:15.149Z,46.25
2022-10-18T01:49:15.149Z,45.92
2022-10-18T01:50:15.127Z,48.82
2022-10-18T01:51:15.126Z,44.79
2022-10-18T01:52:15.096Z,44.63
2022-10-18T01:53:15.120Z,47.37
2022-10-18T01:54:15.153Z,44.96
2022-10-18T01:55:15.079Z,45.28
2022-10-18T01:56:15.088Z,47.05
2022-10-18T01:57:15.065Z,49.15
2022-10-18T01:58:15.061Z,51.72
2022-10-18T01:59:15.103Z,50.60
2022-10-18T02:00:15.055Z,54.79
2022-10-18T02:01:15.031Z,54.46
2022-10-18T02:02:15.015Z,53.33
2022-10-18T02:03:15.021Z,53.33
2022-10-18T02:04:15.012Z,52.53
2022-10-18T02:05:14.997Z,53.82
2022-10-18T02:06:14.991Z,52.69
2022-10-18T02:07:14.963Z,50.60
2022-10-18T02:08:22.966Z,50.76
2022-10-18T02:09:16.929Z,49.95
2022-10-18T02:11:14.927Z,52.37
2022-10-18T02:12:14.912Z,53.98
2022-10-18T02:13:14.889Z,51.88
2022-10-18T02:14:14.912Z,55.75
2022-10-18T02:15:14.895Z,55.91
2022-10-18T02:16:14.879Z,54.95
2022-10-18T02:17:14.857Z,54.30
2022-10-18T02:18:14.859Z,57.04
2022-10-18T02:19:15.007Z,54.46
2022-10-18T02:20:14.832Z,51.40
2022-10-18T02:21:14.812Z,49.63
2022-10-18T02:22:14.824Z,52.85
2022-10-18T02:23:14.795Z,49.63
2022-10-18T02:24:14.835Z,50.60
2022-10-18T02:25:14.783Z,54.14
2022-10-18T02:26:14.758Z,52.05
2022-10-18T02:27:14.806Z,46.73
2022-10-18T02:28:14.777Z,49.79
2022-10-18T02:29:14.808Z,48.34
2022-10-18T02:30:14.726Z,46.41
2022-10-18T02:31:14.720Z,49.31
2022-10-18T02:32:14.722Z,46.57
2022-10-18T02:33:14.699Z,48.50
2022-10-18T02:34:14.682Z,47.86
2022-10-18T02:35:14.694Z,48.50
2022-10-18T02:36:14.679Z,47.70
2022-10-18T02:37:14.722Z,48.18
2022-10-18T02:38:14.645Z,48.02
2022-10-18T02:39:14.763Z,48.66
2022-10-18T02:40:14.634Z,52.85
2022-10-18T02:41:14.630Z,50.11
2022-10-18T02:42:14.631Z,51.72
2022-10-18T02:43:14.598Z,51.88
2022-10-18T02:44:46.497Z,49.47
2022-10-18T02:45:14.591Z,50.76
2022-10-18T02:46:14.628Z,48.82
2022-10-18T02:47:14.561Z,51.24
2022-10-18T02:48:14.578Z,49.79
2022-10-18T02:49:14.550Z,50.76
2022-10-18T02:50:14.535Z,54.30
2022-10-18T02:51:14.528Z,52.69
2022-10-18T02:52:14.510Z,53.33
2022-10-18T02:53:14.523Z,53.33
2022-10-18T02:54:14.499Z,51.72
2022-10-18T02:55:14.497Z,53.01
2022-10-18T02:56:14.478Z,52.53
2022-10-18T02:57:14.476Z,53.66
2022-10-18T02:58:14.454Z,53.66
2022-10-18T02:59:14.485Z,51.88
2022-10-18T03:00:14.447Z,50.60
2022-10-18T03:01:14.490Z,51.40
2022-10-18T03:02:14.418Z,51.72
2022-10-18T03:03:14.411Z,52.69
2022-10-18T03:04:14.536Z,52.53
2022-10-18T03:05:14.387Z,51.72
2022-10-18T03:06:14.407Z,53.17
2022-10-18T03:07:14.375Z,51.88
2022-10-18T03:08:14.369Z,50.43
2022-10-18T03:09:14.350Z,52.21
2022-10-18T03:10:14.328Z,52.53
2022-10-18T03:11:14.350Z,54.46
2022-10-18T03:12:14.317Z,56.40
2022-10-18T03:13:14.309Z,52.53
2022-10-18T03:14:14.307Z,53.33
2022-10-18T03:15:14.337Z,52.21
2022-10-18T03:16:14.293Z,53.33
2022-10-18T03:17:14.264Z,48.50
2022-10-18T03:18:14.261Z,49.31
2022-10-18T03:19:14.264Z,50.60
2022-10-18T03:20:14.243Z,53.66
2022-10-18T03:21:14.225Z,52.69
2022-10-18T03:22:14.234Z,54.46
2022-10-18T03:23:14.226Z,52.85
2022-10-18T03:24:14.193Z,52.37
2022-10-18T03:25:14.197Z,53.82
2022-10-18T03:26:14.227Z,53.98
2022-10-18T03:27:14.162Z,51.88
2022-10-18T03:28:14.155Z,52.21
2022-10-18T03:29:14.153Z,55.11
2022-10-18T03:30:14.156Z,54.95
2022-10-18T03:31:14.140Z,55.11
2022-10-18T03:32:14.117Z,52.53
2022-10-18T03:33:14.105Z,52.53
2022-10-18T03:34:14.160Z,50.92
2022-10-18T03:35:14.099Z,53.33
2022-10-18T03:36:14.064Z,50.92
2022-10-18T03:37:14.062Z,55.91
2022-10-18T03:38:14.039Z,55.59
2022-10-18T03:39:14.087Z,50.92
2022-10-18T03:40:14.031Z,53.50
2022-10-18T03:41:14.018Z,53.98
2022-10-18T03:42:14.022Z,55.27
2022-10-18T03:43:14.019Z,53.98
2022-10-18T03:44:13.986Z,50.11
2022-10-18T03:45:14.000Z,50.76
2022-10-18T03:46:14.020Z,51.88
2022-10-18T03:47:13.968Z,50.76
2022-10-18T03:48:13.952Z,53.50
2022-10-18T03:49:13.950Z,47.53
2022-10-18T03:50:13.931Z,51.88
2022-10-18T03:51:14.073Z,52.21
2022-10-18T03:52:13.913Z,54.14
2022-10-18T03:53:13.926Z,53.17
2022-10-18T03:54:13.889Z,53.98
2022-10-18T03:55:13.891Z,54.30
2022-10-18T03:56:13.861Z,55.43
2022-10-18T03:57:13.849Z,53.82
2022-10-18T03:58:14.874Z,53.33
2022-10-18T03:59:13.840Z,53.01
2022-10-18T04:00:13.813Z,52.05
2022-10-18T04:01:13.834Z,55.11
2022-10-18T04:02:13.823Z,53.82
2022-10-18T04:03:13.824Z,56.24
2022-10-18T04:04:13.786Z,52.69
2022-10-18T04:05:13.780Z,55.75
2022-10-18T04:06:13.770Z,52.53
2022-10-18T04:07:13.761Z,52.85
2022-10-18T04:08:13.767Z,53.33
2022-10-18T04:09:13.745Z,54.46
2022-10-18T04:10:13.724Z,54.14
2022-10-18T04:11:13.729Z,53.33
2022-10-18T04:12:13.714Z,54.30
2022-10-18T04:13:13.686Z,56.56
2022-10-18T04:14:13.710Z,56.07
2022-10-18T04:15:13.674Z,55.11
2022-10-18T04:16:13.660Z,54.62
2022-10-18T04:17:13.669Z,50.43
2022-10-18T04:18:13.647Z,55.11
2022-10-18T04:19:13.646Z,55.43
2022-10-18T04:20:13.630Z,53.98
2022-10-18T04:21:13.616Z,54.62
2022-10-18T04:22:13.621Z,54.46
2022-10-18T04:23:13.605Z,54.95
2022-10-18T04:24:13.610Z,55.27
2022-10-18T04:25:13.593Z,56.07
2022-10-18T04:26:13.571Z,57.20
2022-10-18T04:27:13.560Z,55.91
2022-10-18T04:28:13.561Z,56.56
2022-10-18T04:29:13.517Z,56.40
2022-10-18T04:30:13.556Z,53.82
2022-10-18T04:31:19.470Z,57.20
2022-10-18T04:32:14.530Z,56.88
2022-10-18T04:33:13.496Z,56.72
2022-10-18T04:34:13.488Z,56.56
2022-10-18T04:35:13.496Z,55.43
2022-10-18T04:36:13.460Z,56.40
2022-10-18T04:37:13.462Z,55.91
2022-10-18T04:38:13.452Z,54.46
2022-10-18T04:39:13.467Z,55.27
2022-10-18T04:40:13.423Z,56.07
2022-10-18T04:41:13.421Z,57.69
2022-10-18T04:42:13.405Z,56.24
2022-10-18T04:43:13.392Z,53.66
2022-10-18T04:44:13.407Z,53.98
2022-10-18T04:45:13.369Z,58.01
2022-10-18T04:46:13.354Z,58.17
2022-10-18T04:47:13.344Z,58.17
2022-10-18T04:48:13.330Z,57.36
2022-10-18T04:49:13.346Z,56.56
2022-10-18T04:50:13.327Z,56.07
2022-10-18T04:51:13.320Z,54.14
2022-10-18T04:52:13.310Z,56.07
2022-10-18T04:53:13.290Z,54.79
2022-10-18T04:54:13.305Z,55.75
2022-10-18T04:55:13.271Z,56.88
2022-10-18T04:56:13.261Z,55.27
2022-10-18T04:57:13.253Z,58.01
2022-10-18T04:58:13.230Z,57.69
2022-10-18T04:59:13.263Z,54.30
2022-10-18T05:00:13.210Z,57.69
2022-10-18T05:01:13.236Z,57.85
2022-10-18T05:02:13.192Z,56.72
2022-10-18T05:03:13.193Z,56.40
2022-10-18T05:04:13.175Z,57.69
2022-10-18T05:05:14.174Z,58.49
2022-10-18T05:06:14.229Z,58.49
2022-10-18T05:07:13.159Z,57.69
2022-10-18T05:08:13.201Z,57.52
2022-10-18T05:09:13.127Z,58.01
2022-10-18T05:10:13.126Z,56.72
2022-10-18T05:11:13.147Z,57.20
2022-10-18T05:12:13.106Z,57.69
2022-10-18T05:13:13.111Z,57.36
2022-10-18T05:14:13.088Z,57.52
2022-10-18T05:15:13.059Z,56.56
2022-10-18T05:16:13.118Z,55.11
2022-10-18T05:17:13.035Z,56.88
2022-10-18T05:18:13.040Z,56.24
2022-10-18T05:19:13.030Z,55.43
2022-10-18T05:21:13.024Z,57.36
2022-10-18T05:22:13.009Z,56.56
2022-10-18T05:23:13.008Z,58.01
2022-10-18T05:24:13.012Z,56.72
2022-10-18T05:25:12.987Z,56.07
2022-10-18T05:26:12.989Z,56.24
2022-10-18T05:27:12.978Z,56.07
2022-10-18T05:28:38.042Z,56.72
2022-10-18T05:29:15.062Z,57.52
2022-10-18T05:30:12.922Z,55.27
2022-10-18T05:31:12.926Z,56.07
2022-10-18T05:32:12.954Z,57.04
2022-10-18T05:33:12.898Z,55.43
2022-10-18T05:34:12.901Z,56.72
2022-10-18T05:35:12.879Z,54.79
2022-10-18T05:36:12.866Z,57.85
2022-10-18T05:37:12.855Z,56.72
2022-10-18T05:38:12.832Z,56.24
2022-10-18T05:39:12.856Z,58.17
2022-10-18T05:40:12.814Z,56.24
2022-10-18T05:41:12.835Z,56.88
2022-10-18T05:42:12.803Z,56.56
2022-10-18T05:43:12.806Z,56.88
2022-10-18T05:44:12.779Z,53.66
2022-10-18T05:45:12.807Z,55.27
2022-10-18T05:46:15.419Z,57.52
2022-10-18T05:47:13.754Z,57.69
2022-10-18T05:48:12.745Z,56.24
2022-10-18T05:49:12.729Z,57.36
2022-10-18T05:50:12.752Z,57.36
2022-10-18T05:51:12.719Z,58.33
2022-10-18T05:52:12.730Z,57.04
2022-10-18T05:53:31.796Z,57.85
2022-10-18T05:54:14.698Z,57.20
2022-10-18T05:55:12.677Z,57.36
2022-10-18T05:56:12.676Z,56.88
2022-10-18T05:57:12.656Z,56.88
2022-10-18T05:58:12.640Z,56.72
2022-10-18T05:59:12.656Z,56.56
2022-10-18T06:00:12.612Z,57.04
2022-10-18T06:01:12.612Z,56.56
2022-10-18T06:02:12.669Z,56.24
2022-10-18T06:03:13.596Z,57.04
2022-10-18T06:04:12.580Z,56.56
2022-10-18T06:05:12.576Z,56.07
2022-10-18T06:06:12.567Z,57.36
2022-10-18T06:07:12.591Z,56.56
2022-10-18T06:08:12.550Z,57.04
2022-10-18T06:09:12.537Z,57.04
2022-10-18T06:10:12.532Z,57.04
2022-10-18T06:11:12.522Z,57.04
2022-10-18T06:12:12.514Z,56.07
2022-10-18T06:13:12.526Z,56.07
2022-10-18T06:14:12.502Z,56.24
2022-10-18T06:15:12.479Z,54.46
2022-10-18T06:16:12.513Z,54.46
2022-10-18T06:17:12.454Z,56.56
2022-10-18T06:18:12.438Z,56.72
2022-10-18T06:19:12.440Z,54.79
2022-10-18T06:20:12.427Z,56.24
2022-10-18T06:21:12.413Z,58.01
2022-10-18T06:22:12.405Z,57.04
2022-10-18T06:23:12.381Z,57.85
2022-10-18T06:24:12.396Z,56.07
2022-10-18T06:25:12.375Z,57.69
2022-10-18T06:26:12.441Z,58.17
2022-10-18T06:27:12.388Z,57.20
2022-10-18T06:28:12.433Z,55.91
2022-10-18T06:29:12.415Z,56.56
2022-10-18T06:30:12.350Z,59.14
2022-10-18T06:31:12.345Z,58.01
2022-10-18T06:32:12.286Z,57.85
2022-10-18T06:33:12.277Z,58.17
2022-10-18T06:34:12.280Z,57.85
2022-10-18T06:35:12.260Z,56.56
2022-10-18T06:36:12.267Z,55.75
2022-10-18T06:37:12.241Z,57.69
2022-10-18T06:38:12.239Z,56.72
2022-10-18T06:39:12.215Z,57.69
2022-10-18T06:40:12.210Z,58.65
2022-10-18T06:41:12.219Z,56.72
2022-10-18T06:42:12.185Z,56.88
2022-10-18T06:43:20.502Z,57.52
2022-10-18T06:44:14.173Z,57.20
2022-10-18T06:45:12.152Z,57.04
2022-10-18T06:46:12.184Z,57.69
2022-10-18T06:47:12.134Z,57.52
2022-10-18T06:48:12.165Z,56.40
2022-10-18T06:49:14.059Z,56.56
2022-10-18T06:50:12.114Z,58.17
2022-10-18T06:51:12.096Z,56.88
2022-10-18T06:52:12.098Z,57.85
2022-10-18T06:53:12.076Z,61.55
2022-10-18T06:54:19.094Z,57.20
2022-10-18T06:55:14.063Z,58.49
2022-10-18T06:56:12.039Z,56.88
2022-10-18T06:57:12.030Z,56.56
2022-10-18T06:58:12.029Z,56.56
2022-10-18T06:59:12.041Z,57.36
2022-10-18T07:00:12.016Z,57.36
2022-10-18T07:01:12.075Z,55.91
2022-10-18T07:02:11.978Z,53.82
2022-10-18T07:03:11.987Z,56.40
2022-10-18T07:04:12.021Z,56.24
2022-10-18T07:05:11.960Z,57.20
2022-10-18T07:06:11.942Z,57.85
2022-10-18T07:07:11.935Z,56.88
2022-10-18T07:08:11.925Z,57.20
2022-10-18T07:09:11.932Z,56.72
2022-10-18T07:10:13.118Z,56.07
2022-10-18T07:11:12.890Z,57.04
2022-10-18T07:12:11.904Z,56.88
2022-10-18T07:13:31.521Z,57.04
2022-10-18T07:14:16.467Z,55.27
2022-10-18T07:15:12.852Z,56.24
2022-10-18T07:16:14.218Z,55.27
2022-10-18T07:17:12.856Z,56.24
2022-10-18T07:18:11.821Z,56.07
2022-10-18T07:19:11.807Z,56.40
2022-10-18T07:20:11.800Z,56.56
2022-10-18T07:21:11.810Z,56.24
2022-10-18T07:22:11.798Z,56.72
2022-10-18T07:23:11.765Z,55.11
2022-10-18T07:24:11.774Z,55.59
2022-10-18T07:25:11.739Z,55.75
2022-10-18T07:26:11.740Z,54.46
2022-10-18T07:27:11.752Z,55.43
2022-10-18T07:28:11.709Z,56.56
2022-10-18T07:29:11.727Z,54.95
2022-10-18T07:30:11.698Z,56.24
2022-10-18T07:31:11.698Z,56.72
2022-10-18T07:32:11.687Z,57.20
2022-10-18T07:33:11.663Z,57.52
2022-10-18T07:34:11.687Z,57.36
2022-10-18T07:36:11.642Z,56.40
2022-10-18T07:37:11.627Z,56.40
2022-10-18T07:38:11.647Z,55.59
2022-10-18T07:39:11.603Z,53.98
2022-10-18T07:40:11.613Z,53.82
2022-10-18T07:41:11.588Z,55.59
2022-10-18T07:42:11.571Z,57.04
2022-10-18T07:43:12.412Z,55.75
2022-10-18T07:44:12.556Z,55.75
2022-10-18T07:45:11.550Z,54.95
2022-10-18T07:46:12.544Z,54.30
2022-10-18T07:47:11.560Z,55.91
2022-10-18T07:48:11.516Z,52.69
2022-10-18T07:49:11.507Z,54.46
2022-10-18T07:50:11.503Z,53.98
2022-10-18T07:51:11.482Z,54.79
2022-10-18T07:52:11.492Z,55.27
2022-10-18T07:53:11.490Z,56.72
2022-10-18T07:54:11.454Z,51.40
2022-10-18T07:55:11.447Z,50.92
2022-10-18T07:56:11.427Z,51.88
2022-10-18T07:57:11.434Z,52.85
2022-10-18T07:58:11.434Z,55.91
2022-10-18T07:59:11.407Z,54.95
2022-10-18T08:00:11.392Z,53.66
2022-10-18T08:01:11.459Z,54.46
2022-10-18T08:02:11.369Z,54.95
2022-10-18T08:03:11.379Z,53.01
2022-10-18T08:04:16.093Z,56.24
2022-10-18T08:05:13.347Z,57.69
2022-10-18T08:06:11.336Z,56.88
2022-10-18T08:07:11.326Z,56.72
2022-10-18T08:08:11.335Z,56.07
2022-10-18T08:09:11.364Z,57.20
2022-10-18T08:10:11.295Z,56.56
2022-10-18T08:11:11.297Z,56.56
2022-10-18T08:12:11.272Z,55.91
2022-10-18T08:13:11.283Z,56.72
2022-10-18T08:14:11.267Z,56.40
2022-10-18T08:15:11.240Z,54.79
2022-10-18T08:16:11.243Z,53.33
2022-10-18T08:17:11.241Z,58.97
2022-10-18T08:18:11.223Z,57.04
2022-10-18T08:19:11.204Z,57.69
2022-10-18T08:20:12.406Z,55.59
2022-10-18T08:21:11.218Z,57.52
2022-10-18T08:22:11.212Z,57.52
2022-10-18T08:23:11.163Z,55.43
2022-10-18T08:24:11.152Z,54.95
2022-10-18T08:25:11.135Z,58.01
2022-10-18T08:26:12.134Z,56.07
2022-10-18T08:27:11.151Z,57.20
2022-10-18T08:28:11.108Z,55.59
2022-10-18T08:29:22.931Z,56.07
2022-10-18T08:30:12.107Z,56.72
2022-10-18T08:31:11.073Z,57.04
2022-10-18T08:32:11.072Z,56.40
2022-10-18T08:33:11.096Z,54.30
2022-10-18T08:34:12.289Z,57.20
2022-10-18T08:35:11.061Z,56.56
2022-10-18T08:36:11.041Z,57.36
2022-10-18T08:37:11.032Z,56.88
2022-10-18T08:38:15.137Z,57.04
2022-10-18T08:39:12.021Z,57.20
2022-10-18T08:40:10.996Z,56.56
2022-10-18T08:41:10.980Z,55.91
2022-10-18T08:42:10.979Z,55.75
2022-10-18T08:43:10.959Z,55.43
2022-10-18T08:44:10.980Z,55.75
2022-10-18T08:45:43.417Z,54.95
2022-10-18T08:46:10.933Z,53.66
2022-10-18T08:47:10.922Z,57.04
2022-10-18T08:48:10.936Z,55.91
2022-10-18T08:49:10.906Z,55.43
2022-10-18T08:50:10.952Z,55.75
2022-10-18T08:51:10.876Z,57.04
2022-10-18T08:52:10.872Z,57.69
2022-10-18T08:53:10.867Z,56.72
2022-10-18T08:54:10.861Z,58.17
2022-10-18T08:55:10.865Z,58.49
2022-10-18T08:56:10.844Z,58.33
2022-10-18T08:57:10.826Z,56.88
2022-10-18T08:58:10.816Z,57.85
2022-10-18T08:59:10.809Z,56.72
2022-10-18T09:00:10.795Z,58.01
2022-10-18T09:01:10.795Z,57.69
2022-10-18T09:02:10.759Z,57.04
2022-10-18T09:03:11.831Z,57.20
2022-10-18T09:04:10.754Z,55.27
2022-10-18T09:05:10.740Z,56.07
2022-10-18T09:06:10.759Z,57.36
2022-10-18T09:07:10.727Z,56.72
2022-10-18T09:08:10.714Z,57.04
2022-10-18T09:09:10.731Z,56.56
2022-10-18T09:10:10.723Z,54.79
2022-10-18T09:11:10.690Z,57.52
2022-10-18T09:12:10.663Z,55.75
2022-10-18T09:13:10.687Z,56.88
2022-10-18T09:14:10.672Z,56.56
2022-10-18T09:15:10.672Z,58.01
2022-10-18T09:16:10.637Z,56.88
2022-10-18T09:17:15.078Z,56.40
2022-10-18T09:18:12.618Z,56.56
2022-10-18T09:19:10.631Z,56.88
2022-10-18T09:20:10.590Z,54.46
2022-10-18T09:21:10.589Z,57.04
2022-10-18T09:22:10.596Z,56.07
2022-10-18T09:23:10.594Z,56.56
2022-10-18T09:24:10.579Z,55.75
2022-10-18T09:25:10.549Z,56.24
2022-10-18T09:26:10.549Z,56.56
2022-10-18T09:27:10.577Z,55.11
2022-10-18T09:28:10.508Z,55.91
2022-10-18T09:29:10.742Z,56.24
2022-10-18T09:30:10.561Z,57.85
2022-10-18T09:31:10.480Z,57.52
2022-10-18T09:32:10.471Z,55.91
2022-10-18T09:33:10.472Z,56.56
2022-10-18T09:34:10.455Z,57.04
2022-10-18T09:35:10.465Z,56.56
2022-10-18T09:36:10.458Z,58.17
2022-10-18T09:37:10.426Z,57.04
2022-10-18T09:38:10.419Z,57.52
2022-10-18T09:39:10.407Z,56.24
2022-10-18T09:40:10.892Z,56.88
2022-10-18T09:41:10.373Z,56.56
2022-10-18T09:42:10.414Z,56.07
2022-10-18T09:43:10.364Z,57.36
2022-10-18T09:44:10.387Z,56.88
2022-10-18T09:45:10.336Z,55.91
2022-10-18T09:46:10.335Z,57.69
2022-10-18T09:47:13.401Z,57.04
2022-10-18T09:48:11.320Z,57.36
2022-10-18T09:49:12.982Z,57.20
2022-10-18T09:50:11.296Z,56.56
2022-10-18T09:51:10.311Z,57.85
2022-10-18T09:52:10.274Z,58.81
2022-10-18T09:53:10.270Z,56.88
2022-10-18T09:54:10.276Z,57.69
2022-10-18T09:55:10.251Z,57.04
2022-10-18T09:56:10.274Z,55.11
2022-10-18T09:57:10.230Z,53.33
2022-10-18T09:58:10.213Z,55.59
2022-10-18T09:59:10.232Z,56.24
2022-10-18T10:00:10.200Z,57.52
2022-10-18T10:01:10.200Z,58.01
2022-10-18T10:02:10.171Z,57.04
2022-10-18T10:03:10.174Z,57.85
2022-10-18T10:04:10.191Z,58.17
2022-10-18T10:06:10.160Z,56.24
2022-10-18T10:07:10.137Z,56.56
2022-10-18T10:08:10.140Z,57.52
2022-10-18T10:09:10.127Z,57.36
2022-10-18T10:10:10.118Z,56.24
2022-10-18T10:11:10.088Z,56.24
2022-10-18T10:12:10.075Z,56.24
2022-10-18T10:13:10.103Z,56.07
2022-10-18T10:14:10.146Z,56.72
2022-10-18T10:15:10.127Z,55.59
2022-10-18T10:16:10.038Z,55.59
2022-10-18T10:17:10.032Z,54.14
2022-10-18T10:18:10.026Z,54.95
2022-10-18T10:19:10.025Z,55.59
2022-10-18T10:20:10.070Z,55.75
2022-10-18T10:21:09.989Z,54.46
2022-10-18T10:22:09.978Z,54.30
2022-10-18T10:23:10.083Z,53.33
2022-10-18T10:24:09.955Z,54.46
2022-10-18T10:25:09.962Z,56.24
2022-10-18T10:26:09.963Z,55.59
2022-10-18T10:27:09.931Z,56.56
2022-10-18T10:28:09.921Z,54.95
2022-10-18T10:29:17.438Z,54.46
2022-10-18T10:30:11.902Z,55.27
2022-10-18T10:31:09.905Z,56.40
2022-10-18T10:32:09.903Z,56.40
2022-10-18T10:33:09.865Z,56.56
2022-10-18T10:34:09.896Z,52.69
2022-10-18T10:35:13.615Z,56.56
2022-10-18T10:36:10.839Z,54.79
2022-10-18T10:37:09.825Z,55.11
2022-10-18T10:38:09.815Z,53.50
2022-10-18T10:39:09.822Z,54.30
2022-10-18T10:40:28.382Z,53.66
2022-10-18T10:41:11.808Z,54.14
2022-10-18T10:42:11.449Z,56.56
2022-10-18T10:43:18.367Z,55.75
2022-10-18T10:44:10.815Z,54.62
2022-10-18T10:45:09.757Z,55.11
2022-10-18T10:46:09.737Z,54.46
2022-10-18T10:47:09.725Z,53.33
2022-10-18T10:48:09.709Z,53.66
2022-10-18T10:49:38.446Z,54.30
2022-10-18T10:50:11.705Z,54.62
2022-10-18T10:51:09.705Z,56.07
2022-10-18T10:52:26.423Z,56.24
2022-10-18T10:53:10.661Z,50.60
2022-10-18T10:54:09.667Z,53.66
2022-10-18T10:55:33.820Z,55.91
2022-10-18T10:56:15.252Z,53.17
2022-10-18T10:57:11.374Z,51.72
2022-10-18T10:58:09.614Z,52.05
2022-10-18T10:59:09.660Z,53.50
2022-10-18T11:00:09.630Z,52.53
2022-10-18T11:01:11.311Z,52.05
2022-10-18T11:02:09.571Z,54.30
2022-10-18T11:03:27.469Z,52.69
2022-10-18T11:04:11.613Z,54.62
2022-10-18T11:05:09.555Z,53.17
2022-10-18T11:06:09.553Z,50.43
2022-10-18T11:07:09.514Z,52.85
2022-10-18T11:08:09.537Z,56.88
2022-10-18T11:09:09.506Z,56.40
2022-10-18T11:10:09.519Z,52.85
2022-10-18T11:11:09.494Z,57.20
2022-10-18T11:12:09.483Z,56.88
2022-10-18T11:13:09.483Z,56.07
2022-10-18T11:14:26.137Z,55.11
2022-10-18T11:15:11.511Z,55.43
2022-10-18T11:16:09.452Z,55.75
2022-10-18T11:17:09.420Z,54.79
2022-10-18T11:18:09.412Z,52.37
2022-10-18T11:19:09.400Z,52.85
2022-10-18T11:20:09.426Z,54.30
2022-10-18T11:21:09.402Z,56.07
2022-10-18T11:22:09.373Z,55.91
2022-10-18T11:23:09.379Z,55.27
2022-10-18T11:24:09.363Z,54.95
2022-10-18T11:25:09.387Z,52.69
2022-10-18T11:26:09.358Z,54.95
2022-10-18T11:27:09.330Z,56.07
2022-10-18T11:28:09.332Z,54.30
2022-10-18T11:29:09.327Z,54.46
2022-10-18T11:30:09.322Z,54.62
2022-10-18T11:31:09.293Z,53.82
2022-10-18T11:32:09.299Z,50.27
2022-10-18T11:33:09.292Z,51.56
2022-10-18T11:34:10.281Z,53.82
2022-10-18T11:35:10.250Z,51.72
2022-10-18T11:36:09.243Z,53.98
2022-10-18T11:37:27.155Z,52.53
2022-10-18T11:38:11.273Z,52.53
2022-10-18T11:39:09.225Z,52.85
2022-10-18T11:40:10.208Z,51.24
2022-10-18T11:41:09.197Z,52.37
2022-10-18T11:42:09.172Z,54.46
2022-10-18T11:43:09.191Z,53.66
2022-10-18T11:44:09.155Z,55.11
2022-10-18T11:45:09.173Z,53.50
2022-10-18T11:46:09.349Z,53.50
2022-10-18T11:47:09.133Z,54.46
2022-10-18T11:48:09.145Z,54.30
2022-10-18T11:49:09.101Z,53.98
2022-10-18T11:50:09.106Z,53.50
2022-10-18T11:51:09.084Z,53.01
2022-10-18T11:52:09.465Z,52.21
2022-10-18T11:53:10.095Z,53.17
2022-10-18T11:54:09.046Z,54.95
2022-10-18T11:55:09.044Z,54.95
2022-10-18T11:56:09.034Z,54.62
2022-10-18T11:57:09.062Z,50.60
2022-10-18T11:58:09.027Z,49.31
2022-10-18T11:59:09.003Z,50.11
2022-10-18T12:00:09.017Z,53.50
2022-10-18T12:01:08.986Z,51.88
2022-10-18T12:02:09.086Z,53.98
2022-10-18T12:03:20.434Z,53.82
2022-10-18T12:04:08.972Z,54.30
2022-10-18T12:05:23.181Z,52.85
2022-10-18T12:06:10.959Z,53.50
2022-10-18T12:07:08.925Z,51.72
2022-10-18T12:08:08.918Z,53.98
2022-10-18T12:09:08.928Z,53.50
2022-10-18T12:10:08.912Z,53.98
2022-10-18T12:11:08.918Z,55.11
2022-10-18T12:12:08.921Z,53.66
2022-10-18T12:13:08.859Z,53.01
2022-10-18T12:14:08.877Z,47.53
2022-10-18T12:15:08.869Z,49.15
2022-10-18T12:16:08.865Z,54.62
2022-10-18T12:17:39.646Z,56.07
2022-10-18T12:18:08.815Z,53.17
2022-10-18T12:19:08.834Z,50.92
2022-10-18T12:20:08.898Z,53.50
2022-10-18T12:21:08.777Z,52.37
2022-10-18T12:22:08.775Z,52.21
2022-10-18T12:23:08.766Z,51.40
2022-10-18T12:24:08.763Z,52.05
2022-10-18T12:25:08.771Z,54.46
2022-10-18T12:26:08.755Z,53.01
2022-10-18T12:27:08.725Z,51.56
2022-10-18T12:28:08.710Z,50.60
2022-10-18T12:29:08.786Z,53.98
2022-10-18T12:30:08.812Z,55.43
2022-10-18T12:31:08.700Z,50.76
2022-10-18T12:32:08.672Z,49.63
2022-10-18T12:33:27.208Z,50.92
2022-10-18T12:34:09.662Z,53.33
2022-10-18T12:35:08.671Z,52.69
2022-10-18T12:36:08.643Z,52.69
2022-10-18T12:37:08.628Z,54.46
2022-10-18T12:38:08.639Z,54.62
2022-10-18T12:39:08.635Z,54.46
2022-10-18T12:40:13.201Z,52.21
2022-10-18T12:41:10.614Z,52.05
2022-10-18T12:42:08.582Z,53.98
2022-10-18T12:43:08.586Z,52.53
2022-10-18T12:44:08.563Z,50.76
2022-10-18T12:45:08.559Z,53.82
2022-10-18T12:46:13.289Z,54.14
2022-10-18T12:47:10.556Z,53.50
2022-10-18T12:48:08.746Z,52.53
2022-10-18T12:49:08.503Z,53.01
2022-10-18T12:50:08.489Z,52.21
2022-10-18T12:51:08.487Z,52.53
2022-10-18T12:52:08.489Z,53.17
2022-10-18T12:53:08.499Z,52.85
2022-10-18T12:54:08.467Z,53.01
2022-10-18T12:55:08.451Z,52.85
2022-10-18T12:56:08.448Z,52.85